sensor_id;sensor_type;location;lat;lon;timestamp;P1;durP1;ratioP1;P2;durP2;ratioP2
59587;SDS011;45412;54.472;18.464;2023-04-24T00:01:59;10.90;;;6.40;;
59587;SDS011;45412;54.472;18.464;2023-04-24T00:04:47;12.00;;;6.80;;
59587;SDS011;45412;54.472;18.464;2023-04-24T00:07:36;12.30;;;6.90;;
59587;SDS011;45412;54.472;18.464;2023-04-24T00:10:24;12.40;;;7.20;;
59587;SDS011;45412;54.472;18.464;2023-04-24T00:13:13;11.40;;;6.90;;
59587;SDS011;45412;54.472;18.464;2023-04-24T00:16:00;11.70;;;6.80;;
59587;SDS011;45412;54.472;18.464;2023-04-24T00:18:49;11.20;;;6.80;;
59587;SDS011;45412;54.472;18.464;2023-04-24T00:21:36;11.80;;;6.70;;
59587;SDS011;45412;54.472;18.464;2023-04-24T00:24:25;10.40;;;6.40;;
59587;SDS011;45412;54.472;18.464;2023-04-24T00:27:13;12.00;;;6.50;;
59587;SDS011;45412;54.472;18.464;2023-04-24T00:30:01;16.00;;;10.20;;
59587;SDS011;45412;54.472;18.464;2023-04-24T00:32:50;21.20;;;14.20;;
59587;SDS011;45412;54.472;18.464;2023-04-24T00:35:39;21.80;;;14.20;;
59587;SDS011;45412;54.472;18.464;2023-04-24T00:38:27;22.40;;;14.60;;
59587;SDS011;45412;54.472;18.464;2023-04-24T00:41:15;25.80;;;16.30;;
59587;SDS011;45412;54.472;18.464;2023-04-24T00:44:04;23.70;;;15.00;;
59587;SDS011;45412;54.472;18.464;2023-04-24T00:46:53;25.10;;;15.70;;
59587;SDS011;45412;54.472;18.464;2023-04-24T00:49:42;27.50;;;17.00;;
59587;SDS011;45412;54.472;18.464;2023-04-24T00:52:32;27.80;;;17.00;;
59587;SDS011;45412;54.472;18.464;2023-04-24T00:55:20;27.70;;;16.30;;
59587;SDS011;45412;54.472;18.464;2023-04-24T00:58:09;22.80;;;13.70;;
59587;SDS011;45412;54.472;18.464;2023-04-24T01:00:57;24.50;;;14.80;;
59587;SDS011;45412;54.472;18.464;2023-04-24T01:03:46;25.70;;;13.90;;
59587;SDS011;45412;54.472;18.464;2023-04-24T01:06:39;24.10;;;14.90;;
59587;SDS011;45412;54.472;18.464;2023-04-24T01:09:28;25.10;;;14.60;;
59587;SDS011;45412;54.472;18.464;2023-04-24T01:12:19;29.40;;;16.90;;
59587;SDS011;45412;54.472;18.464;2023-04-24T01:15:08;26.30;;;14.60;;
59587;SDS011;45412;54.472;18.464;2023-04-24T01:17:57;23.50;;;13.50;;
59587;SDS011;45412;54.472;18.464;2023-04-24T01:20:45;24.90;;;14.10;;
59587;SDS011;45412;54.472;18.464;2023-04-24T01:23:34;27.50;;;16.00;;
59587;SDS011;45412;54.472;18.464;2023-04-24T01:26:23;26.40;;;14.90;;
59587;SDS011;45412;54.472;18.464;2023-04-24T01:29:13;29.70;;;15.60;;
59587;SDS011;45412;54.472;18.464;2023-04-24T01:32:03;29.70;;;16.50;;
59587;SDS011;45412;54.472;18.464;2023-04-24T01:34:52;31.10;;;17.00;;
59587;SDS011;45412;54.472;18.464;2023-04-24T01:37:43;28.90;;;16.30;;
59587;SDS011;45412;54.472;18.464;2023-04-24T01:40:32;31.70;;;18.00;;
59587;SDS011;45412;54.472;18.464;2023-04-24T01:43:20;29.60;;;16.30;;
59587;SDS011;45412;54.472;18.464;2023-04-24T01:46:10;33.70;;;17.60;;
59587;SDS011;45412;54.472;18.464;2023-04-24T01:49:00;31.30;;;15.30;;
59587;SDS011;45412;54.472;18.464;2023-04-24T01:51:48;31.80;;;16.90;;
59587;SDS011;45412;54.472;18.464;2023-04-24T01:54:37;29.60;;;16.00;;
59587;SDS011;45412;54.472;18.464;2023-04-24T01:57:25;35.90;;;19.30;;
59587;SDS011;45412;54.472;18.464;2023-04-24T02:00:14;46.00;;;18.80;;
59587;SDS011;45412;54.472;18.464;2023-04-24T02:03:01;33.10;;;17.50;;
59587;SDS011;45412;54.472;18.464;2023-04-24T02:05:50;36.10;;;19.00;;
59587;SDS011;45412;54.472;18.464;2023-04-24T02:08:38;37.10;;;18.80;;
59587;SDS011;45412;54.472;18.464;2023-04-24T02:11:27;36.30;;;17.90;;
59587;SDS011;45412;54.472;18.464;2023-04-24T02:14:15;35.40;;;19.30;;
59587;SDS011;45412;54.472;18.464;2023-04-24T02:17:03;36.80;;;18.50;;
59587;SDS011;45412;54.472;18.464;2023-04-24T02:19:52;34.30;;;17.80;;
59587;SDS011;45412;54.472;18.464;2023-04-24T02:22:40;35.80;;;18.30;;
59587;SDS011;45412;54.472;18.464;2023-04-24T02:25:28;38.60;;;19.50;;
59587;SDS011;45412;54.472;18.464;2023-04-24T02:28:17;38.70;;;21.40;;
59587;SDS011;45412;54.472;18.464;2023-04-24T02:31:05;39.10;;;19.60;;
59587;SDS011;45412;54.472;18.464;2023-04-24T02:33:54;38.70;;;19.30;;
59587;SDS011;45412;54.472;18.464;2023-04-24T02:36:42;42.50;;;21.50;;
59587;SDS011;45412;54.472;18.464;2023-04-24T02:39:31;37.10;;;19.50;;
59587;SDS011;45412;54.472;18.464;2023-04-24T02:42:19;30.70;;;15.20;;
59587;SDS011;45412;54.472;18.464;2023-04-24T02:45:07;34.80;;;16.90;;
59587;SDS011;45412;54.472;18.464;2023-04-24T02:47:55;39.70;;;18.00;;
59587;SDS011;45412;54.472;18.464;2023-04-24T02:50:44;33.00;;;17.90;;
59587;SDS011;45412;54.472;18.464;2023-04-24T02:53:33;37.80;;;19.10;;
59587;SDS011;45412;54.472;18.464;2023-04-24T02:56:21;41.10;;;19.50;;
59587;SDS011;45412;54.472;18.464;2023-04-24T02:59:09;37.90;;;19.60;;
59587;SDS011;45412;54.472;18.464;2023-04-24T03:01:58;39.20;;;20.00;;
59587;SDS011;45412;54.472;18.464;2023-04-24T03:04:46;40.10;;;20.60;;
59587;SDS011;45412;54.472;18.464;2023-04-24T03:07:36;39.80;;;18.60;;
59587;SDS011;45412;54.472;18.464;2023-04-24T03:10:24;38.30;;;18.80;;
59587;SDS011;45412;54.472;18.464;2023-04-24T03:13:13;42.00;;;19.80;;
59587;SDS011;45412;54.472;18.464;2023-04-24T03:16:01;44.00;;;18.60;;
59587;SDS011;45412;54.472;18.464;2023-04-24T03:18:50;41.10;;;18.50;;
59587;SDS011;45412;54.472;18.464;2023-04-24T03:21:39;39.20;;;19.80;;
59587;SDS011;45412;54.472;18.464;2023-04-24T03:24:28;41.80;;;19.30;;
59587;SDS011;45412;54.472;18.464;2023-04-24T03:27:18;42.20;;;19.40;;
59587;SDS011;45412;54.472;18.464;2023-04-24T03:30:26;39.70;;;19.10;;
59587;SDS011;45412;54.472;18.464;2023-04-24T03:33:18;39.80;;;19.00;;
59587;SDS011;45412;54.472;18.464;2023-04-24T03:36:14;36.70;;;16.70;;
59587;SDS011;45412;54.472;18.464;2023-04-24T03:39:04;35.80;;;16.70;;
59587;SDS011;45412;54.472;18.464;2023-04-24T03:41:54;34.50;;;17.10;;
59587;SDS011;45412;54.472;18.464;2023-04-24T03:44:47;33.70;;;17.20;;
59587;SDS011;45412;54.472;18.464;2023-04-24T03:47:36;39.20;;;18.10;;
59587;SDS011;45412;54.472;18.464;2023-04-24T03:50:25;38.60;;;17.60;;
59587;SDS011;45412;54.472;18.464;2023-04-24T03:53:15;38.70;;;17.30;;
59587;SDS011;45412;54.472;18.464;2023-04-24T03:56:04;34.90;;;16.30;;
59587;SDS011;45412;54.472;18.464;2023-04-24T03:58:52;39.60;;;18.00;;
59587;SDS011;45412;54.472;18.464;2023-04-24T04:01:40;42.30;;;18.00;;
59587;SDS011;45412;54.472;18.464;2023-04-24T04:04:34;42.10;;;18.30;;
59587;SDS011;45412;54.472;18.464;2023-04-24T04:07:22;39.00;;;17.20;;
59587;SDS011;45412;54.472;18.464;2023-04-24T04:10:11;39.90;;;17.00;;
59587;SDS011;45412;54.472;18.464;2023-04-24T04:12:59;30.90;;;14.60;;
59587;SDS011;45412;54.472;18.464;2023-04-24T04:15:47;33.70;;;15.30;;
59587;SDS011;45412;54.472;18.464;2023-04-24T04:18:35;35.40;;;15.80;;
59587;SDS011;45412;54.472;18.464;2023-04-24T04:21:24;28.00;;;12.70;;
59587;SDS011;45412;54.472;18.464;2023-04-24T04:24:20;33.40;;;14.90;;
59587;SDS011;45412;54.472;18.464;2023-04-24T04:27:10;30.20;;;14.60;;
59587;SDS011;45412;54.472;18.464;2023-04-24T04:30:10;28.60;;;14.20;;
59587;SDS011;45412;54.472;18.464;2023-04-24T04:33:05;25.90;;;13.00;;
59587;SDS011;45412;54.472;18.464;2023-04-24T04:35:53;25.90;;;13.30;;
59587;SDS011;45412;54.472;18.464;2023-04-24T04:38:47;27.80;;;12.50;;
59587;SDS011;45412;54.472;18.464;2023-04-24T04:42:14;21.00;;;10.40;;
59587;SDS011;45412;54.472;18.464;2023-04-24T04:45:04;22.30;;;10.50;;
59587;SDS011;45412;54.472;18.464;2023-04-24T04:48:02;23.60;;;11.30;;
59587;SDS011;45412;54.472;18.464;2023-04-24T04:50:51;23.40;;;10.60;;
59587;SDS011;45412;54.472;18.464;2023-04-24T04:53:40;22.50;;;10.60;;
59587;SDS011;45412;54.472;18.464;2023-04-24T04:56:28;23.00;;;11.00;;
59587;SDS011;45412;54.472;18.464;2023-04-24T04:59:16;22.90;;;10.60;;
59587;SDS011;45412;54.472;18.464;2023-04-24T05:02:07;24.30;;;11.20;;
59587;SDS011;45412;54.472;18.464;2023-04-24T05:04:56;26.00;;;11.40;;
59587;SDS011;45412;54.472;18.464;2023-04-24T05:07:44;22.60;;;10.60;;
59587;SDS011;45412;54.472;18.464;2023-04-24T05:10:32;22.70;;;11.00;;
59587;SDS011;45412;54.472;18.464;2023-04-24T05:13:21;22.00;;;10.40;;
59587;SDS011;45412;54.472;18.464;2023-04-24T05:16:26;22.10;;;11.10;;
59587;SDS011;45412;54.472;18.464;2023-04-24T05:19:15;21.30;;;10.90;;
59587;SDS011;45412;54.472;18.464;2023-04-24T05:22:05;25.70;;;11.70;;
59587;SDS011;45412;54.472;18.464;2023-04-24T05:24:57;22.10;;;10.90;;
59587;SDS011;45412;54.472;18.464;2023-04-24T05:28:08;17.50;;;9.40;;
59587;SDS011;45412;54.472;18.464;2023-04-24T05:30:57;23.90;;;11.40;;
59587;SDS011;45412;54.472;18.464;2023-04-24T05:33:47;19.10;;;9.50;;
59587;SDS011;45412;54.472;18.464;2023-04-24T05:36:35;22.40;;;10.80;;
59587;SDS011;45412;54.472;18.464;2023-04-24T05:39:23;21.90;;;11.90;;
59587;SDS011;45412;54.472;18.464;2023-04-24T05:42:13;22.00;;;11.60;;
59587;SDS011;45412;54.472;18.464;2023-04-24T05:45:04;23.70;;;12.30;;
59587;SDS011;45412;54.472;18.464;2023-04-24T05:47:53;19.70;;;10.10;;
59587;SDS011;45412;54.472;18.464;2023-04-24T05:50:42;21.40;;;10.90;;
59587;SDS011;45412;54.472;18.464;2023-04-24T05:53:31;20.50;;;9.90;;
59587;SDS011;45412;54.472;18.464;2023-04-24T05:56:21;19.10;;;9.50;;
59587;SDS011;45412;54.472;18.464;2023-04-24T05:59:09;17.40;;;9.30;;
59587;SDS011;45412;54.472;18.464;2023-04-24T06:01:58;19.90;;;9.10;;
59587;SDS011;45412;54.472;18.464;2023-04-24T06:04:46;19.30;;;10.70;;
59587;SDS011;45412;54.472;18.464;2023-04-24T06:07:33;20.50;;;11.00;;
59587;SDS011;45412;54.472;18.464;2023-04-24T06:10:24;21.20;;;10.90;;
59587;SDS011;45412;54.472;18.464;2023-04-24T06:13:13;22.70;;;10.50;;
59587;SDS011;45412;54.472;18.464;2023-04-24T06:16:06;19.80;;;10.70;;
59587;SDS011;45412;54.472;18.464;2023-04-24T06:18:59;20.40;;;11.00;;
59587;SDS011;45412;54.472;18.464;2023-04-24T06:21:47;25.20;;;11.40;;
59587;SDS011;45412;54.472;18.464;2023-04-24T06:24:37;21.40;;;10.20;;
59587;SDS011;45412;54.472;18.464;2023-04-24T06:27:25;21.50;;;9.10;;
59587;SDS011;45412;54.472;18.464;2023-04-24T06:30:13;18.20;;;8.70;;
59587;SDS011;45412;54.472;18.464;2023-04-24T06:33:02;17.30;;;9.10;;
59587;SDS011;45412;54.472;18.464;2023-04-24T06:36:05;16.50;;;7.80;;
59587;SDS011;45412;54.472;18.464;2023-04-24T06:38:54;14.70;;;7.40;;
59587;SDS011;45412;54.472;18.464;2023-04-24T06:41:42;20.90;;;8.80;;
59587;SDS011;45412;54.472;18.464;2023-04-24T06:44:41;17.00;;;8.40;;
59587;SDS011;45412;54.472;18.464;2023-04-24T06:47:30;19.20;;;9.90;;
59587;SDS011;45412;54.472;18.464;2023-04-24T06:50:18;18.00;;;8.50;;
59587;SDS011;45412;54.472;18.464;2023-04-24T06:53:06;18.80;;;8.50;;
59587;SDS011;45412;54.472;18.464;2023-04-24T06:55:55;17.70;;;8.20;;
59587;SDS011;45412;54.472;18.464;2023-04-24T06:58:43;17.90;;;8.70;;
59587;SDS011;45412;54.472;18.464;2023-04-24T07:01:33;15.10;;;7.80;;
59587;SDS011;45412;54.472;18.464;2023-04-24T07:04:21;13.90;;;6.90;;
59587;SDS011;45412;54.472;18.464;2023-04-24T07:07:12;15.60;;;7.30;;
59587;SDS011;45412;54.472;18.464;2023-04-24T07:10:01;11.50;;;5.30;;
59587;SDS011;45412;54.472;18.464;2023-04-24T07:12:52;14.60;;;6.30;;
59587;SDS011;45412;54.472;18.464;2023-04-24T07:15:41;12.50;;;5.80;;
59587;SDS011;45412;54.472;18.464;2023-04-24T07:18:30;15.40;;;6.50;;
59587;SDS011;45412;54.472;18.464;2023-04-24T07:21:18;14.30;;;6.30;;
59587;SDS011;45412;54.472;18.464;2023-04-24T07:24:06;12.10;;;5.70;;
59587;SDS011;45412;54.472;18.464;2023-04-24T07:26:59;12.60;;;5.70;;
59587;SDS011;45412;54.472;18.464;2023-04-24T07:29:48;10.80;;;4.90;;
59587;SDS011;45412;54.472;18.464;2023-04-24T07:32:36;12.80;;;5.50;;
59587;SDS011;45412;54.472;18.464;2023-04-24T07:35:26;10.40;;;4.70;;
59587;SDS011;45412;54.472;18.464;2023-04-24T07:38:16;9.90;;;5.00;;
59587;SDS011;45412;54.472;18.464;2023-04-24T07:41:10;9.40;;;5.10;;
59587;SDS011;45412;54.472;18.464;2023-04-24T07:43:58;9.20;;;4.90;;
59587;SDS011;45412;54.472;18.464;2023-04-24T07:46:46;9.80;;;5.50;;
59587;SDS011;45412;54.472;18.464;2023-04-24T07:49:35;10.00;;;4.90;;
59587;SDS011;45412;54.472;18.464;2023-04-24T07:52:24;9.30;;;5.00;;
59587;SDS011;45412;54.472;18.464;2023-04-24T07:55:13;11.00;;;6.00;;
59587;SDS011;45412;54.472;18.464;2023-04-24T07:58:01;10.50;;;5.90;;
59587;SDS011;45412;54.472;18.464;2023-04-24T08:00:49;11.00;;;6.80;;
59587;SDS011;45412;54.472;18.464;2023-04-24T08:03:40;12.70;;;5.80;;
59587;SDS011;45412;54.472;18.464;2023-04-24T08:06:32;10.80;;;5.90;;
59587;SDS011;45412;54.472;18.464;2023-04-24T08:09:20;15.70;;;6.60;;
59587;SDS011;45412;54.472;18.464;2023-04-24T08:12:09;13.60;;;7.70;;
59587;SDS011;45412;54.472;18.464;2023-04-24T08:14:57;15.20;;;6.90;;
59587;SDS011;45412;54.472;18.464;2023-04-24T08:17:45;18.50;;;7.30;;
59587;SDS011;45412;54.472;18.464;2023-04-24T08:20:34;11.40;;;6.50;;
59587;SDS011;45412;54.472;18.464;2023-04-24T08:23:25;12.50;;;6.80;;
59587;SDS011;45412;54.472;18.464;2023-04-24T08:26:14;13.10;;;6.00;;
59587;SDS011;45412;54.472;18.464;2023-04-24T08:29:04;12.20;;;7.20;;
59587;SDS011;45412;54.472;18.464;2023-04-24T08:31:57;15.10;;;8.30;;
59587;SDS011;45412;54.472;18.464;2023-04-24T08:34:47;14.80;;;8.80;;
59587;SDS011;45412;54.472;18.464;2023-04-24T08:37:37;13.80;;;8.20;;
59587;SDS011;45412;54.472;18.464;2023-04-24T08:40:27;14.50;;;8.70;;
59587;SDS011;45412;54.472;18.464;2023-04-24T08:43:17;14.70;;;8.90;;
59587;SDS011;45412;54.472;18.464;2023-04-24T08:46:08;15.60;;;8.70;;
59587;SDS011;45412;54.472;18.464;2023-04-24T08:48:59;14.20;;;7.70;;
59587;SDS011;45412;54.472;18.464;2023-04-24T08:51:47;15.40;;;8.90;;
59587;SDS011;45412;54.472;18.464;2023-04-24T08:54:38;16.40;;;9.50;;
59587;SDS011;45412;54.472;18.464;2023-04-24T08:57:28;15.80;;;8.90;;
59587;SDS011;45412;54.472;18.464;2023-04-24T09:00:20;15.50;;;9.20;;
59587;SDS011;45412;54.472;18.464;2023-04-24T09:03:09;19.60;;;10.90;;
59587;SDS011;45412;54.472;18.464;2023-04-24T09:05:58;21.60;;;9.80;;
59587;SDS011;45412;54.472;18.464;2023-04-24T09:08:48;19.20;;;10.20;;
59587;SDS011;45412;54.472;18.464;2023-04-24T09:11:40;19.30;;;11.00;;
59587;SDS011;45412;54.472;18.464;2023-04-24T09:14:28;18.40;;;10.00;;
59587;SDS011;45412;54.472;18.464;2023-04-24T09:17:19;15.80;;;8.90;;
59587;SDS011;45412;54.472;18.464;2023-04-24T09:20:08;18.80;;;10.90;;
59587;SDS011;45412;54.472;18.464;2023-04-24T09:22:57;15.60;;;9.30;;
59587;SDS011;45412;54.472;18.464;2023-04-24T09:25:46;22.20;;;10.00;;
59587;SDS011;45412;54.472;18.464;2023-04-24T09:28:42;15.90;;;8.40;;
59587;SDS011;45412;54.472;18.464;2023-04-24T09:31:32;13.70;;;7.90;;
59587;SDS011;45412;54.472;18.464;2023-04-24T09:34:22;14.00;;;7.90;;
59587;SDS011;45412;54.472;18.464;2023-04-24T09:37:11;13.80;;;8.10;;
59587;SDS011;45412;54.472;18.464;2023-04-24T09:40:17;13.90;;;7.10;;
59587;SDS011;45412;54.472;18.464;2023-04-24T09:43:11;21.50;;;8.40;;
59587;SDS011;45412;54.472;18.464;2023-04-24T09:46:04;17.70;;;7.80;;
59587;SDS011;45412;54.472;18.464;2023-04-24T09:48:57;15.60;;;8.00;;
59587;SDS011;45412;54.472;18.464;2023-04-24T09:51:45;16.90;;;8.80;;
59587;SDS011;45412;54.472;18.464;2023-04-24T09:54:34;14.80;;;8.20;;
59587;SDS011;45412;54.472;18.464;2023-04-24T09:57:24;16.40;;;8.80;;
59587;SDS011;45412;54.472;18.464;2023-04-24T10:00:13;14.60;;;8.90;;
59587;SDS011;45412;54.472;18.464;2023-04-24T10:03:05;14.30;;;8.70;;
59587;SDS011;45412;54.472;18.464;2023-04-24T10:05:54;14.90;;;8.80;;
59587;SDS011;45412;54.472;18.464;2023-04-24T10:08:42;14.50;;;8.00;;
59587;SDS011;45412;54.472;18.464;2023-04-24T10:11:33;15.70;;;8.60;;
59587;SDS011;45412;54.472;18.464;2023-04-24T10:14:24;16.20;;;8.90;;
59587;SDS011;45412;54.472;18.464;2023-04-24T10:17:13;12.80;;;7.00;;
59587;SDS011;45412;54.472;18.464;2023-04-24T10:20:02;12.10;;;7.60;;
59587;SDS011;45412;54.472;18.464;2023-04-24T10:22:53;11.90;;;7.60;;
59587;SDS011;45412;54.472;18.464;2023-04-24T10:25:42;12.10;;;8.10;;
59587;SDS011;45412;54.472;18.464;2023-04-24T10:28:30;13.00;;;8.10;;
59587;SDS011;45412;54.472;18.464;2023-04-24T10:31:20;13.00;;;7.60;;
59587;SDS011;45412;54.472;18.464;2023-04-24T10:34:09;13.20;;;8.10;;
59587;SDS011;45412;54.472;18.464;2023-04-24T10:36:58;14.00;;;7.90;;
59587;SDS011;45412;54.472;18.464;2023-04-24T10:39:49;13.50;;;8.60;;
59587;SDS011;45412;54.472;18.464;2023-04-24T10:42:42;10.80;;;7.30;;
59587;SDS011;45412;54.472;18.464;2023-04-24T10:45:30;13.40;;;8.70;;
59587;SDS011;45412;54.472;18.464;2023-04-24T10:48:18;13.30;;;8.80;;
59587;SDS011;45412;54.472;18.464;2023-04-24T10:51:14;13.30;;;8.50;;
59587;SDS011;45412;54.472;18.464;2023-04-24T10:54:28;13.20;;;8.60;;
59587;SDS011;45412;54.472;18.464;2023-04-24T10:57:28;12.30;;;8.30;;
59587;SDS011;45412;54.472;18.464;2023-04-24T11:00:20;15.50;;;9.50;;
59587;SDS011;45412;54.472;18.464;2023-04-24T11:03:29;14.30;;;8.40;;
59587;SDS011;45412;54.472;18.464;2023-04-24T11:06:18;15.30;;;9.80;;
59587;SDS011;45412;54.472;18.464;2023-04-24T11:09:20;15.00;;;8.90;;
59587;SDS011;45412;54.472;18.464;2023-04-24T11:12:10;14.00;;;8.70;;
59587;SDS011;45412;54.472;18.464;2023-04-24T11:15:02;13.70;;;9.00;;
59587;SDS011;45412;54.472;18.464;2023-04-24T11:17:51;14.70;;;10.10;;
59587;SDS011;45412;54.472;18.464;2023-04-24T11:20:44;16.00;;;10.00;;
59587;SDS011;45412;54.472;18.464;2023-04-24T11:23:36;14.90;;;10.60;;
59587;SDS011;45412;54.472;18.464;2023-04-24T11:26:25;15.10;;;9.60;;
59587;SDS011;45412;54.472;18.464;2023-04-24T11:29:20;14.20;;;9.30;;
59587;SDS011;45412;54.472;18.464;2023-04-24T11:32:22;13.70;;;8.40;;
59587;SDS011;45412;54.472;18.464;2023-04-24T11:35:20;14.20;;;8.60;;
59587;SDS011;45412;54.472;18.464;2023-04-24T11:38:12;12.60;;;8.60;;
59587;SDS011;45412;54.472;18.464;2023-04-24T11:41:12;12.20;;;8.00;;
59587;SDS011;45412;54.472;18.464;2023-04-24T11:44:02;15.00;;;9.20;;
59587;SDS011;45412;54.472;18.464;2023-04-24T11:46:52;13.80;;;8.70;;
59587;SDS011;45412;54.472;18.464;2023-04-24T11:49:43;14.40;;;9.30;;
59587;SDS011;45412;54.472;18.464;2023-04-24T11:52:33;15.10;;;9.00;;
59587;SDS011;45412;54.472;18.464;2023-04-24T11:55:27;13.60;;;9.10;;
59587;SDS011;45412;54.472;18.464;2023-04-24T11:58:16;20.80;;;10.60;;
59587;SDS011;45412;54.472;18.464;2023-04-24T12:01:09;16.50;;;10.70;;
59587;SDS011;45412;54.472;18.464;2023-04-24T12:03:59;15.60;;;9.70;;
59587;SDS011;45412;54.472;18.464;2023-04-24T12:07:04;16.10;;;10.60;;
59587;SDS011;45412;54.472;18.464;2023-04-24T12:09:58;14.80;;;9.30;;
59587;SDS011;45412;54.472;18.464;2023-04-24T12:12:47;14.60;;;9.60;;
59587;SDS011;45412;54.472;18.464;2023-04-24T12:15:39;14.90;;;9.60;;
59587;SDS011;45412;54.472;18.464;2023-04-24T12:18:28;12.50;;;8.10;;
59587;SDS011;45412;54.472;18.464;2023-04-24T12:21:18;12.40;;;7.40;;
59587;SDS011;45412;54.472;18.464;2023-04-24T12:24:10;10.60;;;6.00;;
59587;SDS011;45412;54.472;18.464;2023-04-24T12:26:59;12.20;;;5.90;;
59587;SDS011;45412;54.472;18.464;2023-04-24T12:29:56;12.30;;;6.40;;
59587;SDS011;45412;54.472;18.464;2023-04-24T12:32:47;11.00;;;6.00;;
59587;SDS011;45412;54.472;18.464;2023-04-24T12:35:36;10.40;;;5.20;;
59587;SDS011;45412;54.472;18.464;2023-04-24T12:38:29;9.30;;;4.90;;
59587;SDS011;45412;54.472;18.464;2023-04-24T12:41:19;8.80;;;4.90;;
59587;SDS011;45412;54.472;18.464;2023-04-24T12:44:11;11.10;;;5.10;;
59587;SDS011;45412;54.472;18.464;2023-04-24T12:47:07;8.20;;;4.30;;
59587;SDS011;45412;54.472;18.464;2023-04-24T12:49:56;10.30;;;5.10;;
59587;SDS011;45412;54.472;18.464;2023-04-24T12:52:46;10.50;;;5.00;;
59587;SDS011;45412;54.472;18.464;2023-04-24T12:55:36;10.90;;;4.40;;
59587;SDS011;45412;54.472;18.464;2023-04-24T12:58:34;9.80;;;4.70;;
59587;SDS011;45412;54.472;18.464;2023-04-24T13:01:22;14.20;;;4.50;;
59587;SDS011;45412;54.472;18.464;2023-04-24T13:04:11;7.40;;;3.70;;
59587;SDS011;45412;54.472;18.464;2023-04-24T13:06:59;10.10;;;4.50;;
59587;SDS011;45412;54.472;18.464;2023-04-24T13:09:49;12.60;;;3.90;;
59587;SDS011;45412;54.472;18.464;2023-04-24T13:12:38;10.60;;;4.10;;
59587;SDS011;45412;54.472;18.464;2023-04-24T13:15:27;9.90;;;4.00;;
59587;SDS011;45412;54.472;18.464;2023-04-24T13:18:16;10.50;;;3.70;;
59587;SDS011;45412;54.472;18.464;2023-04-24T13:21:07;8.30;;;3.80;;
59587;SDS011;45412;54.472;18.464;2023-04-24T13:23:55;9.70;;;3.80;;
59587;SDS011;45412;54.472;18.464;2023-04-24T13:26:45;8.30;;;3.60;;
59587;SDS011;45412;54.472;18.464;2023-04-24T13:29:34;8.20;;;3.80;;
59587;SDS011;45412;54.472;18.464;2023-04-24T13:32:22;8.70;;;4.20;;
59587;SDS011;45412;54.472;18.464;2023-04-24T13:35:10;8.70;;;3.60;;
59587;SDS011;45412;54.472;18.464;2023-04-24T13:37:58;10.20;;;4.10;;
59587;SDS011;45412;54.472;18.464;2023-04-24T13:40:48;7.90;;;3.80;;
59587;SDS011;45412;54.472;18.464;2023-04-24T13:43:37;9.20;;;4.20;;
59587;SDS011;45412;54.472;18.464;2023-04-24T13:46:26;7.20;;;3.70;;
59587;SDS011;45412;54.472;18.464;2023-04-24T13:49:15;8.90;;;4.30;;
59587;SDS011;45412;54.472;18.464;2023-04-24T13:52:03;8.50;;;3.90;;
59587;SDS011;45412;54.472;18.464;2023-04-24T13:54:52;8.20;;;3.40;;
59587;SDS011;45412;54.472;18.464;2023-04-24T13:57:39;8.50;;;3.80;;
59587;SDS011;45412;54.472;18.464;2023-04-24T14:00:28;8.80;;;3.60;;
59587;SDS011;45412;54.472;18.464;2023-04-24T14:03:17;7.00;;;2.90;;
59587;SDS011;45412;54.472;18.464;2023-04-24T14:06:05;9.90;;;3.50;;
59587;SDS011;45412;54.472;18.464;2023-04-24T14:08:53;10.70;;;3.60;;
59587;SDS011;45412;54.472;18.464;2023-04-24T14:11:42;10.90;;;3.90;;
59587;SDS011;45412;54.472;18.464;2023-04-24T14:14:31;7.90;;;3.40;;
59587;SDS011;45412;54.472;18.464;2023-04-24T14:17:19;8.10;;;4.00;;
59587;SDS011;45412;54.472;18.464;2023-04-24T14:20:09;8.10;;;4.00;;
59587;SDS011;45412;54.472;18.464;2023-04-24T14:22:57;10.90;;;4.00;;
59587;SDS011;45412;54.472;18.464;2023-04-24T14:25:47;8.20;;;4.10;;
59587;SDS011;45412;54.472;18.464;2023-04-24T14:28:38;9.80;;;3.60;;
59587;SDS011;45412;54.472;18.464;2023-04-24T14:31:27;8.50;;;3.90;;
59587;SDS011;45412;54.472;18.464;2023-04-24T14:34:15;8.50;;;4.20;;
59587;SDS011;45412;54.472;18.464;2023-04-24T14:37:03;8.90;;;4.00;;
59587;SDS011;45412;54.472;18.464;2023-04-24T14:39:51;9.70;;;3.90;;
59587;SDS011;45412;54.472;18.464;2023-04-24T14:43:01;10.00;;;4.10;;
59587;SDS011;45412;54.472;18.464;2023-04-24T14:45:50;8.10;;;3.90;;
59587;SDS011;45412;54.472;18.464;2023-04-24T14:48:43;9.10;;;4.10;;
59587;SDS011;45412;54.472;18.464;2023-04-24T14:51:31;9.90;;;4.80;;
59587;SDS011;45412;54.472;18.464;2023-04-24T14:54:20;12.30;;;5.50;;
59587;SDS011;45412;54.472;18.464;2023-04-24T14:57:10;9.60;;;4.80;;
59587;SDS011;45412;54.472;18.464;2023-04-24T15:00:01;8.70;;;4.70;;
59587;SDS011;45412;54.472;18.464;2023-04-24T15:02:54;12.10;;;4.70;;
59587;SDS011;45412;54.472;18.464;2023-04-24T15:05:44;8.30;;;4.40;;
59587;SDS011;45412;54.472;18.464;2023-04-24T15:08:38;10.80;;;4.90;;
59587;SDS011;45412;54.472;18.464;2023-04-24T15:11:27;10.20;;;4.80;;
59587;SDS011;45412;54.472;18.464;2023-04-24T15:14:19;11.50;;;5.40;;
59587;SDS011;45412;54.472;18.464;2023-04-24T15:17:07;11.20;;;5.10;;
59587;SDS011;45412;54.472;18.464;2023-04-24T15:19:55;12.20;;;5.20;;
59587;SDS011;45412;54.472;18.464;2023-04-24T15:22:45;12.40;;;6.40;;
59587;SDS011;45412;54.472;18.464;2023-04-24T15:25:33;13.40;;;6.20;;
59587;SDS011;45412;54.472;18.464;2023-04-24T15:28:21;15.80;;;7.00;;
59587;SDS011;45412;54.472;18.464;2023-04-24T15:31:10;10.50;;;5.70;;
59587;SDS011;45412;54.472;18.464;2023-04-24T15:33:58;12.30;;;5.30;;
59587;SDS011;45412;54.472;18.464;2023-04-24T15:36:47;9.10;;;4.20;;
59587;SDS011;45412;54.472;18.464;2023-04-24T15:39:36;9.40;;;4.50;;
59587;SDS011;45412;54.472;18.464;2023-04-24T15:42:24;9.30;;;4.80;;
59587;SDS011;45412;54.472;18.464;2023-04-24T15:45:13;9.80;;;4.40;;
59587;SDS011;45412;54.472;18.464;2023-04-24T15:48:03;9.90;;;4.70;;
59587;SDS011;45412;54.472;18.464;2023-04-24T15:50:55;10.40;;;4.80;;
59587;SDS011;45412;54.472;18.464;2023-04-24T15:53:42;11.60;;;6.00;;
59587;SDS011;45412;54.472;18.464;2023-04-24T15:56:33;11.20;;;5.90;;
59587;SDS011;45412;54.472;18.464;2023-04-24T15:59:24;10.70;;;6.30;;
59587;SDS011;45412;54.472;18.464;2023-04-24T16:02:13;12.60;;;6.60;;
59587;SDS011;45412;54.472;18.464;2023-04-24T16:05:08;13.30;;;6.50;;
59587;SDS011;45412;54.472;18.464;2023-04-24T16:07:57;9.50;;;5.60;;
59587;SDS011;45412;54.472;18.464;2023-04-24T16:10:55;10.30;;;5.50;;
59587;SDS011;45412;54.472;18.464;2023-04-24T16:13:50;10.60;;;4.90;;
59587;SDS011;45412;54.472;18.464;2023-04-24T16:16:44;9.30;;;5.00;;
59587;SDS011;45412;54.472;18.464;2023-04-24T16:19:33;11.60;;;4.90;;
59587;SDS011;45412;54.472;18.464;2023-04-24T16:22:22;9.20;;;4.90;;
59587;SDS011;45412;54.472;18.464;2023-04-24T16:25:14;10.90;;;4.90;;
59587;SDS011;45412;54.472;18.464;2023-04-24T16:28:08;9.80;;;4.80;;
59587;SDS011;45412;54.472;18.464;2023-04-24T16:31:06;10.30;;;5.50;;
59587;SDS011;45412;54.472;18.464;2023-04-24T16:34:04;11.20;;;5.60;;